Time,TemperatureF,DewpointF,PressureIn,WindDirection,WindDirectionDegrees,WindSpeedMPH,WindSpeedGustMPH,Humidity,HourlyPrecipIn,Conditions,Clouds,dailyrainin,SoftwareType,DateUTC
2013-08-07 00:03:00,82.6,75.8,29.85,North,351,0.0,0.0,80,0.00,-RA,-RA,0.00,WeatherDisplay:10.37,2013-08-07 05:03:00,
2013-08-07 00:09:00,82.6,75.8,29.85,North,0,0.0,0.0,80,0.00,-RA,-RA,0.00,WeatherDisplay:10.37,2013-08-07 05:09:00,
2013-08-07 00:15:00,82.6,75.8,29.85,North,0,0.0,0.0,80,0.00,-RA,-RA,0.00,WeatherDisplay:10.37,2013-08-07 05:15:00,
2013-08-07 00:24:00,70.9,64.4,29.89,NW,313,10.0,17.0,80,0.00,-RA,-RA,0.00,WeatherDisplay:10.37,2013-08-07 05:24:00,
2013-08-07 00:30:00,70.9,64.4,29.88,WNW,289,8.0,8.0,80,0.00,-RA,-RA,0.00,WeatherDisplay:10.37,2013-08-07 05:30:00,
2013-08-07 00:36:00,70.9,64.4,29.88,WNW,285,6.0,8.0,80,0.00,-RA,-RA,0.00,WeatherDisplay:10.37,2013-08-07 05:36:00,
2013-08-07 00:51:00,70.6,64.1,29.89,NNW,346,0.0,2.0,80,0.00,-RA,-RA,0.00,WeatherDisplay:10.37,2013-08-07 05:51:00,
2013-08-07 00:57:00,70.6,64.1,29.89,SW,232,1.0,3.0,80,0.01,-RA,-RA,0.01,WeatherDisplay:10.37,2013-08-07 05:57:00,
2013-08-07 01:03:00,70.6,65.8,29.89,SSE,154,0.0,0.0,85,0.00,-RA,-RA,0.02,WeatherDisplay:10.37,2013-08-07 06:03:00,
2013-08-07 01:09:00,70.6,65.8,29.89,East,84,0.0,0.0,85,0.00,-RA,-RA,0.03,WeatherDisplay:10.37,2013-08-07 06:09:00,
2013-08-07 01:15:00,70.6,65.8,29.87,ENE,78,0.0,0.0,85,0.00,-RA,-RA,0.03,WeatherDisplay:10.37,2013-08-07 06:15:00,
2013-08-07 01:21:00,70.6,65.8,29.87,ENE,75,0.0,0.0,85,0.00,-RA,-RA,0.03,WeatherDisplay:10.37,2013-08-07 06:21:00,
2013-08-07 01:27:00,70.8,66.1,29.85,NE,46,0.0,0.0,85,0.00,-RA,-RA,0.03,WeatherDisplay:10.37,2013-08-07 06:27:00,
2013-08-07 01:33:00,70.9,66.1,29.85,ENE,58,0.0,0.0,85,0.01,RA,RA,0.04,WeatherDisplay:10.37,2013-08-07 06:33:00,
2013-08-07 01:39:00,70.9,66.1,29.85,ENE,78,0.0,0.0,85,0.00,RA,RA,0.04,WeatherDisplay:10.37,2013-08-07 06:39:00,
2013-08-07 01:45:00,70.9,66.1,29.85,East,87,3.0,5.0,85,0.00,OVC,OVC,0.04,WeatherDisplay:10.37,2013-08-07 06:45:00,
2013-08-07 01:51:00,71.0,66.3,29.84,East,91,1.0,5.0,85,0.01,RA,RA,0.05,WeatherDisplay:10.37,2013-08-07 06:51:00,
2013-08-07 01:57:00,71.0,66.3,29.84,ESE,106,0.0,3.0,85,0.00,RA,RA,0.05,WeatherDisplay:10.37,2013-08-07 06:57:00,
2013-08-07 02:03:00,70.9,66.1,29.83,East,95,0.0,0.0,85,0.00,-RA,-RA,0.05,WeatherDisplay:10.37,2013-08-07 07:03:00,
2013-08-07 02:09:00,70.9,66.1,29.83,East,98,0.0,0.0,85,0.00,-RA,-RA,0.05,WeatherDisplay:10.37,2013-08-07 07:09:00,
2013-08-07 02:15:00,70.9,66.1,29.83,NE,37,0.0,0.0,85,0.00,-RA,-RA,0.05,WeatherDisplay:10.37,2013-08-07 07:15:00,
2013-08-07 02:21:00,70.9,66.1,29.83,NW,324,0.0,0.0,85,0.00,-RA,-RA,0.05,WeatherDisplay:10.37,2013-08-07 07:21:00,
2013-08-07 02:27:00,70.9,66.1,29.82,NNW,338,0.0,0.0,85,0.00,-RA,-RA,0.05,WeatherDisplay:10.37,2013-08-07 07:27:00,
2013-08-07 02:33:00,70.9,66.1,29.82,East,80,0.0,0.0,85,0.00,-RA,-RA,0.05,WeatherDisplay:10.37,2013-08-07 07:33:00,
2013-08-07 02:39:00,70.7,65.9,29.81,ESE,113,0.0,0.0,85,0.00,-RA,-RA,0.05,WeatherDisplay:10.37,2013-08-07 07:39:00,
2013-08-07 02:45:00,70.7,65.9,29.81,ENE,64,0.0,0.0,85,0.00,-RA,-RA,0.05,WeatherDisplay:10.37,2013-08-07 07:45:00,
2013-08-07 02:51:00,70.7,65.9,29.80,North,8,0.0,0.0,85,0.00,-RA,-RA,0.05,WeatherDisplay:10.37,2013-08-07 07:51:00,
2013-08-07 02:57:00,70.6,65.8,29.80,NNW,347,0.0,0.0,85,0.00,-RA,-RA,0.05,WeatherDisplay:10.37,2013-08-07 07:57:00,
2013-08-07 03:03:00,70.6,65.8,29.80,NNE,24,0.0,0.0,85,0.00,BKN,BKN,0.05,WeatherDisplay:10.37,2013-08-07 08:03:00,
2013-08-07 03:09:00,70.6,65.8,29.80,NE,38,0.0,0.0,85,0.00,BKN,BKN,0.05,WeatherDisplay:10.37,2013-08-07 08:09:00,
2013-08-07 03:15:00,70.2,65.4,29.80,North,350,0.0,0.0,85,0.00,BKN,BKN,0.05,WeatherDisplay:10.37,2013-08-07 08:15:00,
2013-08-07 03:21:00,70.2,65.4,29.80,NNW,335,0.0,5.0,85,0.00,BKN,BKN,0.05,WeatherDisplay:10.37,2013-08-07 08:21:00,
2013-08-07 03:27:00,70.0,65.2,29.83,West,262,3.0,7.0,85,0.00,BKN,BKN,0.05,WeatherDisplay:10.37,2013-08-07 08:27:00,
2013-08-07 03:33:00,69.8,65.0,29.83,South,180,3.0,5.0,85,0.00,BKN,BKN,0.05,WeatherDisplay:10.37,2013-08-07 08:33:00,
2013-08-07 03:39:00,69.5,64.8,29.83,NNE,22,2.0,5.0,85,0.00,BKN,BKN,0.05,WeatherDisplay:10.37,2013-08-07 08:39:00,
2013-08-07 03:45:00,69.5,64.8,29.83,NNW,342,0.0,0.0,85,0.00,BKN,BKN,0.05,WeatherDisplay:10.37,2013-08-07 08:45:00,
2013-08-07 03:51:00,69.5,64.7,29.83,NE,36,0.0,0.0,85,0.00,BKN,BKN,0.05,WeatherDisplay:10.37,2013-08-07 08:51:00,
2013-08-07 03:57:00,69.3,64.6,29.83,ENE,66,0.0,0.0,85,0.00,BKN,BKN,0.05,WeatherDisplay:10.37,2013-08-07 08:57:00,
2013-08-07 04:03:00,69.1,64.4,29.84,ENE,66,0.0,0.0,85,0.00,BKN,BKN,0.05,WeatherDisplay:10.37,2013-08-07 09:03:00,
2013-08-07 04:09:00,69.1,64.4,29.84,East,86,3.0,5.0,85,0.00,BKN,BKN,0.05,WeatherDisplay:10.37,2013-08-07 09:09:00,
2013-08-07 04:15:00,69.1,64.4,29.85,East,97,0.0,0.0,85,0.00,BKN,BKN,0.05,WeatherDisplay:10.37,2013-08-07 09:15:00,
2013-08-07 04:21:00,69.1,64.4,29.85,East,82,0.0,0.0,85,0.00,BKN,BKN,0.05,WeatherDisplay:10.37,2013-08-07 09:21:00,
2013-08-07 04:27:00,68.9,64.2,29.84,NE,54,0.0,0.0,85,0.00,BKN,BKN,0.05,WeatherDisplay:10.37,2013-08-07 09:27:00,
2013-08-07 04:33:00,68.9,64.2,29.84,NE,56,0.0,0.0,85,0.00,BKN,BKN,0.05,WeatherDisplay:10.37,2013-08-07 09:33:00,
2013-08-07 04:39:00,68.9,64.2,29.83,ENE,58,0.0,0.0,85,0.00,BKN,BKN,0.05,WeatherDisplay:10.37,2013-08-07 09:39:00,
2013-08-07 04:45:00,69.3,64.6,29.83,North,357,0.0,0.0,85,0.00,BKN,BKN,0.05,WeatherDisplay:10.37,2013-08-07 09:45:00,
2013-08-07 04:51:00,69.3,64.6,29.83,ESE,120,0.0,0.0,85,0.00,BKN,BKN,0.05,WeatherDisplay:10.37,2013-08-07 09:51:00,
2013-08-07 04:57:00,69.3,64.6,29.83,SE,133,2.0,6.0,85,0.00,BKN,BKN,0.05,WeatherDisplay:10.37,2013-08-07 09:57:00,
2013-08-07 05:03:00,69.3,64.6,29.85,NNE,33,1.0,5.0,85,0.00,BKN,BKN,0.05,WeatherDisplay:10.37,2013-08-07 10:03:00,
2013-08-07 05:09:00,69.3,64.6,29.85,WSW,239,0.0,3.0,85,0.00,BKN,BKN,0.05,WeatherDisplay:10.37,2013-08-07 10:09:00,
2013-08-07 05:15:00,69.3,64.6,29.86,SSE,152,0.0,0.0,85,0.00,BKN,BKN,0.05,WeatherDisplay:10.37,2013-08-07 10:15:00,
2013-08-07 05:21:00,69.5,64.8,29.86,SSE,153,0.0,0.0,85,0.00,BKN,BKN,0.05,WeatherDisplay:10.37,2013-08-07 10:21:00,
2013-08-07 05:27:00,69.5,64.8,29.87,SE,124,0.0,0.0,85,0.00,BKN,BKN,0.05,WeatherDisplay:10.37,2013-08-07 10:27:00,
2013-08-07 05:33:00,69.5,64.8,29.87,East,85,0.0,0.0,85,0.00,BKN,BKN,0.05,WeatherDisplay:10.37,2013-08-07 10:33:00,
2013-08-07 05:39:00,69.5,64.8,29.86,East,101,0.0,0.0,85,0.00,BKN,BKN,0.05,WeatherDisplay:10.37,2013-08-07 10:39:00,
2013-08-07 05:45:00,69.5,64.8,29.86,SE,137,0.0,0.0,85,0.00,BKN,BKN,0.05,WeatherDisplay:10.37,2013-08-07 10:45:00,
2013-08-07 05:51:00,69.7,64.9,29.87,SSE,163,0.0,0.0,85,0.00,BKN,BKN,0.05,WeatherDisplay:10.37,2013-08-07 10:51:00,
2013-08-07 05:57:00,69.7,64.9,29.87,North,350,0.0,0.0,85,0.00,BKN,BKN,0.05,WeatherDisplay:10.37,2013-08-07 10:57:00,
2013-08-07 06:03:00,69.5,64.8,29.87,ENE,64,0.0,0.0,85,0.00,BKN,BKN,0.05,WeatherDisplay:10.37,2013-08-07 11:03:00,
2013-08-07 06:09:00,69.7,64.9,29.87,ESE,118,0.0,0.0,85,0.00,BKN,BKN,0.05,WeatherDisplay:10.37,2013-08-07 11:09:00,
2013-08-07 06:15:00,69.7,64.9,29.88,SW,226,0.0,0.0,85,0.00,BKN,BKN,0.05,WeatherDisplay:10.37,2013-08-07 11:15:00,
2013-08-07 06:21:00,69.7,64.9,29.88,SSE,156,0.0,0.0,85,0.00,BKN,BKN,0.05,WeatherDisplay:10.37,2013-08-07 11:21:00,
2013-08-07 06:27:00,70.0,65.2,29.89,WNW,288,2.0,6.0,85,0.00,BKN,BKN,0.05,WeatherDisplay:10.37,2013-08-07 11:27:00,
2013-08-07 06:33:00,70.0,65.2,29.89,NE,56,0.0,0.0,85,0.00,BKN,BKN,0.05,WeatherDisplay:10.37,2013-08-07 11:33:00,
2013-08-07 06:39:00,70.0,65.2,29.88,SSE,151,0.0,0.0,85,0.00,BKN,BKN,0.05,WeatherDisplay:10.37,2013-08-07 11:39:00,
2013-08-07 06:45:00,70.0,65.2,29.88,South,176,0.0,0.0,85,0.00,BKN,BKN,0.05,WeatherDisplay:10.37,2013-08-07 11:45:00,
2013-08-07 06:51:00,70.0,65.2,29.88,SE,133,0.0,0.0,85,0.00,BKN,BKN,0.05,WeatherDisplay:10.37,2013-08-07 11:51:00,
2013-08-07 06:57:00,70.0,65.2,29.88,East,79,0.0,0.0,85,0.00,BKN,BKN,0.05,WeatherDisplay:10.37,2013-08-07 11:57:00,
2013-08-07 07:03:00,69.8,65.0,29.87,ENE,61,0.0,0.0,85,0.00,BKN,BKN,0.05,WeatherDisplay:10.37,2013-08-07 12:03:00,
2013-08-07 07:09:00,69.8,65.0,29.87,ENE,57,0.0,0.0,85,0.00,BKN,BKN,0.05,WeatherDisplay:10.37,2013-08-07 12:09:00,
2013-08-07 07:15:00,70.0,65.2,29.88,East,83,0.0,0.0,85,0.00,BKN,BKN,0.05,WeatherDisplay:10.37,2013-08-07 12:15:00,
2013-08-07 07:21:00,70.2,65.4,29.88,ENE,62,0.0,0.0,85,0.00,BKN,BKN,0.05,WeatherDisplay:10.37,2013-08-07 12:21:00,
2013-08-07 07:27:00,70.4,65.6,29.87,ENE,57,0.0,0.0,85,0.00,BKN,BKN,0.05,WeatherDisplay:10.37,2013-08-07 12:27:00,
2013-08-07 07:33:00,70.7,65.9,29.87,North,359,0.0,0.0,85,0.00,BKN,BKN,0.05,WeatherDisplay:10.37,2013-08-07 12:33:00,
2013-08-07 07:39:00,70.7,65.9,29.87,NNE,33,0.0,0.0,85,0.00,BKN,BKN,0.05,WeatherDisplay:10.37,2013-08-07 12:39:00,
2013-08-07 07:45:00,70.7,65.9,29.87,ENE,74,0.0,0.0,85,0.00,RA,RA,0.06,WeatherDisplay:10.37,2013-08-07 12:45:00,
2013-08-07 07:51:00,70.7,65.9,29.88,ENE,60,0.0,0.0,85,0.00,RA,RA,0.06,WeatherDisplay:10.37,2013-08-07 12:51:00,
2013-08-07 07:57:00,70.7,65.9,29.88,ENE,63,0.0,0.0,85,0.00,BKN,BKN,0.06,WeatherDisplay:10.37,2013-08-07 12:57:00,
2013-08-07 08:03:00,70.9,66.1,29.89,East,79,0.0,0.0,85,0.00,BKN,BKN,0.06,WeatherDisplay:10.37,2013-08-07 13:03:00,
2013-08-07 08:09:00,71.1,66.3,29.89,ENE,67,0.0,0.0,85,0.00,BKN,BKN,0.06,WeatherDisplay:10.37,2013-08-07 13:09:00,
2013-08-07 08:15:00,71.4,66.7,29.90,North,1,0.0,0.0,85,0.00,BKN,BKN,0.06,WeatherDisplay:10.37,2013-08-07 13:15:00,
2013-08-07 08:21:00,71.6,66.8,29.90,NW,316,0.0,0.0,85,0.00,BKN,BKN,0.06,WeatherDisplay:10.37,2013-08-07 13:21:00,
2013-08-07 08:27:00,72.0,67.2,29.90,NW,320,0.0,0.0,85,0.00,BKN,BKN,0.06,WeatherDisplay:10.37,2013-08-07 13:27:00,
2013-08-07 08:33:00,72.0,67.3,29.90,NNW,340,0.0,0.0,85,0.00,BKN,BKN,0.06,WeatherDisplay:10.37,2013-08-07 13:33:00,
2013-08-07 08:39:00,72.0,67.3,29.90,NNW,327,0.0,0.0,85,0.00,BKN,BKN,0.06,WeatherDisplay:10.37,2013-08-07 13:39:00,
2013-08-07 08:45:00,72.4,67.6,29.90,NW,314,3.0,8.0,85,0.00,BKN,BKN,0.06,WeatherDisplay:10.37,2013-08-07 13:45:00,
2013-08-07 08:51:00,72.5,67.7,29.92,WNW,288,5.0,11.0,85,0.00,BKN,BKN,0.06,WeatherDisplay:10.37,2013-08-07 13:51:00,
2013-08-07 08:57:00,73.1,68.3,29.92,West,277,7.0,8.0,85,0.00,BKN,BKN,0.06,WeatherDisplay:10.37,2013-08-07 13:57:00,
2013-08-07 09:03:00,74.0,69.2,29.92,WNW,294,1.0,6.0,85,0.00,BKN,BKN,0.06,WeatherDisplay:10.37,2013-08-07 14:03:00,
2013-08-07 09:09:00,74.2,69.4,29.92,NW,306,2.0,5.0,85,0.00,BKN,BKN,0.06,WeatherDisplay:10.37,2013-08-07 14:09:00,
2013-08-07 09:15:00,74.3,69.5,29.93,ENE,70,3.0,5.0,85,0.00,BKN,BKN,0.06,WeatherDisplay:10.37,2013-08-07 14:15:00,
2013-08-07 09:21:00,74.7,69.8,29.93,NE,52,0.0,0.0,85,0.00,BKN,BKN,0.06,WeatherDisplay:10.37,2013-08-07 14:21:00,
2013-08-07 09:27:00,75.1,70.2,29.92,NNE,15,1.0,6.0,85,0.00,BKN,BKN,0.06,WeatherDisplay:10.37,2013-08-07 14:27:00,
2013-08-07 09:33:00,74.9,70.0,29.92,NE,56,2.0,5.0,85,0.00,BKN,BKN,0.06,WeatherDisplay:10.37,2013-08-07 14:33:00,
2013-08-07 09:39:00,75.2,70.3,29.93,NNE,26,1.0,5.0,85,0.00,BKN,BKN,0.06,WeatherDisplay:10.37,2013-08-07 14:39:00,
2013-08-07 09:45:00,75.9,71.1,29.93,NNW,347,0.0,5.0,85,0.00,BKN,BKN,0.06,WeatherDisplay:10.37,2013-08-07 14:45:00,
2013-08-07 09:51:00,76.3,71.4,29.93,North,351,5.0,6.0,85,0.00,BKN,BKN,0.06,WeatherDisplay:10.37,2013-08-07 14:51:00,
2013-08-07 09:57:00,76.2,71.4,29.93,NW,308,8.0,10.0,85,0.00,BKN,BKN,0.06,WeatherDisplay:10.37,2013-08-07 14:57:00,
2013-08-07 10:03:00,76.8,71.9,29.93,NW,315,3.0,7.0,85,0.00,BKN,BKN,0.06,WeatherDisplay:10.37,2013-08-07 15:03:00,
2013-08-07 10:09:00,76.9,72.0,29.93,NW,317,2.0,6.0,85,0.00,BKN,BKN,0.06,WeatherDisplay:10.37,2013-08-07 15:09:00,
2013-08-07 10:15:00,77.7,72.9,29.93,NNE,18,3.0,6.0,85,0.00,BKN,BKN,0.06,WeatherDisplay:10.37,2013-08-07 15:15:00,
2013-08-07 10:21:00,77.9,72.6,29.93,NNW,346,2.0,5.0,84,0.00,BKN,BKN,0.06,WeatherDisplay:10.37,2013-08-07 15:21:00,
2013-08-07 10:27:00,78.1,71.8,29.93,NE,35,5.0,8.0,81,0.00,BKN,BKN,0.06,WeatherDisplay:10.37,2013-08-07 15:27:00,
2013-08-07 10:33:00,79.2,72.9,29.93,NE,44,8.0,9.0,81,0.00,BKN,BKN,0.06,WeatherDisplay:10.37,2013-08-07 15:33:00,
2013-08-07 10:39:00,79.3,73.0,29.93,ENE,78,2.0,7.0,81,0.00,BKN,BKN,0.06,WeatherDisplay:10.37,2013-08-07 15:39:00,
2013-08-07 10:45:00,80.3,73.9,29.93,ENE,78,2.0,5.0,81,0.00,BKN,BKN,0.06,WeatherDisplay:10.37,2013-08-07 15:45:00,
2013-08-07 10:51:00,80.3,73.9,29.93,East,96,6.0,8.0,81,0.00,BKN,BKN,0.06,WeatherDisplay:10.37,2013-08-07 15:51:00,
2013-08-07 10:57:00,79.9,73.5,29.93,East,84,3.0,6.0,81,0.00,BKN,BKN,0.06,WeatherDisplay:10.37,2013-08-07 15:57:00,
2013-08-07 11:03:00,80.7,72.9,29.93,ENE,74,6.0,7.0,77,0.00,BKN,BKN,0.06,WeatherDisplay:10.37,2013-08-07 16:03:00,
2013-08-07 11:09:00,80.5,72.6,29.93,East,95,5.0,7.0,77,0.00,BKN,BKN,0.06,WeatherDisplay:10.37,2013-08-07 16:09:00,
2013-08-07 11:15:00,80.5,72.6,29.93,East,83,5.0,7.0,77,0.00,BKN,BKN,0.06,WeatherDisplay:10.37,2013-08-07 16:15:00,
2013-08-07 11:21:00,80.6,72.7,29.93,NE,49,6.0,7.0,77,0.00,BKN,BKN,0.06,WeatherDisplay:10.37,2013-08-07 16:21:00,
2013-08-07 11:27:00,80.5,72.7,29.93,ENE,58,5.0,8.0,77,0.00,BKN,BKN,0.06,WeatherDisplay:10.37,2013-08-07 16:27:00,
2013-08-07 11:33:00,81.1,73.2,29.93,ENE,65,5.0,7.0,77,0.00,BKN,BKN,0.06,WeatherDisplay:10.37,2013-08-07 16:33:00,
2013-08-07 11:39:00,80.5,71.0,29.93,ENE,70,9.0,12.0,73,0.00,BKN,BKN,0.06,WeatherDisplay:10.37,2013-08-07 16:39:00,
2013-08-07 11:45:00,81.0,71.5,29.93,ENE,65,7.0,14.0,73,0.00,BKN,BKN,0.06,WeatherDisplay:10.37,2013-08-07 16:45:00,
2013-08-07 11:51:00,82.8,73.2,29.94,ENE,61,7.0,8.0,73,0.00,BKN,BKN,0.06,WeatherDisplay:10.37,2013-08-07 16:51:00,
2013-08-07 11:57:00,81.3,71.8,29.94,ENE,65,6.0,13.0,73,0.00,BKN,BKN,0.06,WeatherDisplay:10.37,2013-08-07 16:57:00,
2013-08-07 12:03:00,81.0,71.5,29.93,East,83,5.0,7.0,73,0.00,BKN,BKN,0.06,WeatherDisplay:10.37,2013-08-07 17:03:00,
2013-08-07 12:09:00,81.5,72.0,29.93,East,80,5.0,7.0,73,0.00,BKN,BKN,0.06,WeatherDisplay:10.37,2013-08-07 17:09:00,
2013-08-07 12:15:00,81.1,71.6,29.94,East,80,3.0,6.0,73,0.00,BKN,BKN,0.06,WeatherDisplay:10.37,2013-08-07 17:15:00,
2013-08-07 12:21:00,82.1,72.5,29.94,ENE,78,6.0,7.0,73,0.00,BKN,BKN,0.06,WeatherDisplay:10.37,2013-08-07 17:21:00,
2013-08-07 12:27:00,82.1,72.6,29.94,ENE,77,7.0,8.0,73,0.00,BKN,BKN,0.06,WeatherDisplay:10.37,2013-08-07 17:27:00,
2013-08-07 12:33:00,83.9,74.3,29.94,ESE,103,3.0,7.0,73,0.00,BKN,BKN,0.06,WeatherDisplay:10.37,2013-08-07 17:33:00,
2013-08-07 12:39:00,84.9,75.3,29.94,ESE,123,2.0,4.0,73,0.00,BKN,BKN,0.06,WeatherDisplay:10.37,2013-08-07 17:39:00,
2013-08-07 12:45:00,85.2,75.6,29.94,ESE,111,3.0,7.0,73,0.00,BKN,BKN,0.06,WeatherDisplay:10.37,2013-08-07 17:45:00,
2013-08-07 12:51:00,86.4,76.7,29.94,East,95,5.0,8.0,73,0.00,BKN,BKN,0.06,WeatherDisplay:10.37,2013-08-07 17:51:00,
2013-08-07 12:57:00,86.6,77.0,29.94,ENE,70,3.0,12.0,73,0.00,BKN,BKN,0.06,WeatherDisplay:10.37,2013-08-07 17:57:00,
2013-08-07 13:03:00,87.9,78.2,29.94,NE,51,7.0,10.0,73,0.00,BKN,BKN,0.06,WeatherDisplay:10.37,2013-08-07 18:03:00,
2013-08-07 13:09:00,86.0,76.3,29.94,ENE,59,3.0,5.0,73,0.00,BKN,BKN,0.06,WeatherDisplay:10.37,2013-08-07 18:09:00,
2013-08-07 13:15:00,88.9,79.2,29.94,ENE,60,5.0,10.0,73,0.00,BKN,BKN,0.06,WeatherDisplay:10.37,2013-08-07 18:15:00,
2013-08-07 13:21:00,87.1,77.4,29.94,ENE,69,6.0,7.0,73,0.00,BKN,BKN,0.06,WeatherDisplay:10.37,2013-08-07 18:21:00,
2013-08-07 13:27:00,87.5,77.8,29.93,East,81,8.0,12.0,73,0.00,BKN,BKN,0.06,WeatherDisplay:10.37,2013-08-07 18:27:00,
2013-08-07 13:33:00,87.5,77.8,29.93,East,88,6.0,9.0,73,0.00,BKN,BKN,0.06,WeatherDisplay:10.37,2013-08-07 18:33:00,
2013-08-07 13:39:00,87.6,77.8,29.94,ENE,66,6.0,8.0,73,0.00,BKN,BKN,0.06,WeatherDisplay:10.37,2013-08-07 18:39:00,
2013-08-07 13:45:00,87.5,77.7,29.94,East,85,5.0,7.0,73,0.00,BKN,BKN,0.06,WeatherDisplay:10.37,2013-08-07 18:45:00,
2013-08-07 13:51:00,88.5,78.7,29.93,ENE,71,9.0,13.0,73,0.00,BKN,BKN,0.06,WeatherDisplay:10.37,2013-08-07 18:51:00,
2013-08-07 13:57:00,88.8,79.1,29.93,NE,56,3.0,12.0,73,0.00,BKN,BKN,0.06,WeatherDisplay:10.37,2013-08-07 18:57:00,
2013-08-07 14:03:00,89.7,79.9,29.93,NE,49,6.0,12.0,73,0.00,BKN,BKN,0.06,WeatherDisplay:10.37,2013-08-07 19:03:00,
2013-08-07 14:09:00,88.7,78.9,29.93,ENE,58,6.0,14.0,73,0.00,BKN,BKN,0.06,WeatherDisplay:10.37,2013-08-07 19:09:00,
2013-08-07 14:15:00,88.5,78.8,29.93,ENE,68,5.0,10.0,73,0.00,BKN,BKN,0.06,WeatherDisplay:10.37,2013-08-07 19:15:00,
2013-08-07 14:21:00,87.0,77.3,29.93,ENE,78,9.0,14.0,73,0.00,BKN,BKN,0.06,WeatherDisplay:10.37,2013-08-07 19:21:00,
2013-08-07 14:27:00,85.8,76.1,29.93,ENE,64,6.0,13.0,73,0.00,BKN,BKN,0.06,WeatherDisplay:10.37,2013-08-07 19:27:00,
2013-08-07 14:33:00,86.7,77.0,29.93,East,83,10.0,12.0,73,0.00,BKN,BKN,0.06,WeatherDisplay:10.37,2013-08-07 19:33:00,
2013-08-07 14:39:00,87.4,77.7,29.92,East,85,3.0,6.0,73,0.00,BKN,BKN,0.06,WeatherDisplay:10.37,2013-08-07 19:39:00,
2013-08-07 14:45:00,88.9,79.1,29.92,ENE,64,3.0,6.0,73,0.00,BKN,BKN,0.06,WeatherDisplay:10.37,2013-08-07 19:45:00,
2013-08-07 14:51:00,87.7,78.0,29.92,ENE,77,2.0,9.0,73,0.00,BKN,BKN,0.06,WeatherDisplay:10.37,2013-08-07 19:51:00,
2013-08-07 14:57:00,89.3,79.5,29.92,East,79,7.0,12.0,73,0.00,BKN,BKN,0.06,WeatherDisplay:10.37,2013-08-07 19:57:00,
2013-08-07 15:03:00,88.6,78.9,29.92,East,96,2.0,6.0,73,0.00,BKN,BKN,0.06,WeatherDisplay:10.37,2013-08-07 20:03:00,
2013-08-07 15:09:00,88.1,78.3,29.92,East,79,3.0,7.0,73,0.00,BKN,BKN,0.06,WeatherDisplay:10.37,2013-08-07 20:09:00,
2013-08-07 15:15:00,88.0,78.2,29.92,NE,47,8.0,12.0,73,0.00,BKN,BKN,0.06,WeatherDisplay:10.37,2013-08-07 20:15:00,
2013-08-07 15:21:00,87.8,78.0,29.92,ENE,75,7.0,12.0,73,0.00,BKN,BKN,0.06,WeatherDisplay:10.37,2013-08-07 20:21:00,
2013-08-07 15:27:00,89.5,79.7,29.92,ENE,65,6.0,13.0,73,0.00,BKN,BKN,0.06,WeatherDisplay:10.37,2013-08-07 20:27:00,
2013-08-07 15:33:00,89.3,77.8,29.92,NE,51,7.0,12.0,69,0.00,BKN,BKN,0.06,WeatherDisplay:10.37,2013-08-07 20:33:00,
2013-08-07 15:39:00,88.2,76.7,29.92,ENE,69,6.0,9.0,69,0.00,BKN,BKN,0.06,WeatherDisplay:10.37,2013-08-07 20:39:00,
2013-08-07 15:45:00,88.9,77.4,29.92,East,101,2.0,8.0,69,0.00,BKN,BKN,0.06,WeatherDisplay:10.37,2013-08-07 20:45:00,
2013-08-07 15:51:00,88.6,77.1,29.92,East,79,6.0,12.0,69,0.00,BKN,BKN,0.06,WeatherDisplay:10.37,2013-08-07 20:51:00,
2013-08-07 15:57:00,89.5,78.0,29.92,NE,53,3.0,8.0,69,0.00,BKN,BKN,0.06,WeatherDisplay:10.37,2013-08-07 20:57:00,
2013-08-07 16:03:00,88.8,77.3,29.92,NE,43,8.0,12.0,69,0.00,BKN,BKN,0.06,WeatherDisplay:10.37,2013-08-07 21:03:00,
2013-08-07 16:09:00,88.7,77.2,29.92,ENE,65,7.0,10.0,69,0.00,BKN,BKN,0.06,WeatherDisplay:10.37,2013-08-07 21:09:00,
2013-08-07 16:15:00,88.7,77.2,29.92,NE,54,6.0,10.0,69,0.00,BKN,BKN,0.06,WeatherDisplay:10.37,2013-08-07 21:15:00,
2013-08-07 16:21:00,88.8,77.3,29.92,ENE,60,3.0,4.0,69,0.00,BKN,BKN,0.06,WeatherDisplay:10.37,2013-08-07 21:21:00,
2013-08-07 16:27:00,89.5,77.9,29.92,NE,45,9.0,10.0,69,0.00,BKN,BKN,0.06,WeatherDisplay:10.37,2013-08-07 21:27:00,
2013-08-07 16:33:00,88.2,76.7,29.92,NE,40,7.0,14.0,69,0.00,BKN,BKN,0.06,WeatherDisplay:10.37,2013-08-07 21:33:00,
2013-08-07 16:39:00,87.5,76.0,29.92,ENE,67,7.0,12.0,69,0.00,BKN,BKN,0.06,WeatherDisplay:10.37,2013-08-07 21:39:00,
2013-08-07 16:45:00,87.0,75.6,29.92,East,83,8.0,9.0,69,0.00,BKN,BKN,0.06,WeatherDisplay:10.37,2013-08-07 21:45:00,
2013-08-07 16:51:00,86.9,75.5,29.92,ENE,68,6.0,16.0,69,0.00,BKN,BKN,0.06,WeatherDisplay:10.37,2013-08-07 21:51:00,
2013-08-07 16:57:00,86.9,75.5,29.92,NE,47,6.0,6.0,69,0.00,BKN,BKN,0.06,WeatherDisplay:10.37,2013-08-07 21:57:00,
2013-08-07 17:03:00,86.9,75.5,29.92,NE,45,6.0,6.0,69,0.00,BKN,BKN,0.06,WeatherDisplay:10.37,2013-08-07 22:03:00,
2013-08-07 17:09:00,86.9,75.5,29.92,NE,45,6.0,6.0,69,0.00,BKN,BKN,0.06,WeatherDisplay:10.37,2013-08-07 22:09:00,
2013-08-07 17:15:00,86.9,75.5,29.92,NE,45,6.0,6.0,69,0.00,BKN,BKN,0.06,WeatherDisplay:10.37,2013-08-07 22:15:00,
2013-08-07 17:21:00,86.9,75.5,29.92,NE,45,6.0,6.0,69,0.00,BKN,BKN,0.06,WeatherDisplay:10.37,2013-08-07 22:21:00,
2013-08-07 17:27:00,86.9,75.5,29.92,NE,45,6.0,6.0,69,0.00,BKN,BKN,0.06,WeatherDisplay:10.37,2013-08-07 22:27:00,
2013-08-07 17:33:00,86.9,75.5,29.92,NE,45,6.0,6.0,69,0.00,BKN,BKN,0.06,WeatherDisplay:10.37,2013-08-07 22:33:00,
2013-08-07 17:39:00,86.9,75.5,29.92,NE,45,6.0,6.0,69,0.00,BKN,BKN,0.06,WeatherDisplay:10.37,2013-08-07 22:39:00,
2013-08-07 17:45:00,86.9,75.5,29.92,NE,45,6.0,6.0,69,0.00,BKN,BKN,0.06,WeatherDisplay:10.37,2013-08-07 22:45:00,
2013-08-07 17:51:00,86.9,75.5,29.92,NE,45,6.0,6.0,69,0.00,BKN,BKN,0.06,WeatherDisplay:10.37,2013-08-07 22:51:00,
2013-08-07 17:57:00,86.9,75.5,29.92,NE,45,6.0,6.0,69,0.00,BKN,BKN,0.06,WeatherDisplay:10.37,2013-08-07 22:57:00,
2013-08-07 18:03:00,86.9,75.5,29.92,NE,45,6.0,6.0,69,0.00,BKN,BKN,0.06,WeatherDisplay:10.37,2013-08-07 23:03:00,
2013-08-07 18:09:00,86.9,75.5,29.92,NE,45,6.0,6.0,69,0.00,BKN,BKN,0.06,WeatherDisplay:10.37,2013-08-07 23:09:00,
2013-08-07 18:15:00,86.9,75.5,29.92,NE,45,6.0,6.0,69,0.00,BKN,BKN,0.06,WeatherDisplay:10.37,2013-08-07 23:15:00,
2013-08-07 18:21:00,86.9,75.5,29.92,NE,45,6.0,7.0,69,0.00,BKN,BKN,0.06,WeatherDisplay:10.37,2013-08-07 23:21:00,
2013-08-07 18:27:00,83.3,73.8,29.90,NE,53,5.0,8.0,73,0.00,BKN,BKN,0.06,WeatherDisplay:10.37,2013-08-07 23:27:00,
2013-08-07 18:33:00,84.8,75.1,29.90,ENE,61,3.0,7.0,73,0.00,BKN,BKN,0.06,WeatherDisplay:10.37,2013-08-07 23:33:00,
2013-08-07 18:39:00,85.0,75.4,29.90,ENE,62,8.0,9.0,73,0.00,BKN,BKN,0.06,WeatherDisplay:10.37,2013-08-07 23:39:00,
2013-08-07 18:45:00,85.3,75.7,29.90,NE,54,6.0,7.0,73,0.00,BKN,BKN,0.06,WeatherDisplay:10.37,2013-08-07 23:45:00,
2013-08-07 18:51:00,85.0,75.3,29.89,ENE,60,6.0,7.0,73,0.00,BKN,BKN,0.06,WeatherDisplay:10.37,2013-08-07 23:51:00,
2013-08-07 18:57:00,83.8,74.2,29.89,ENE,77,6.0,9.0,73,0.00,BKN,BKN,0.06,WeatherDisplay:10.37,2013-08-07 23:57:00,
2013-08-07 19:03:00,82.6,73.0,29.88,ENE,74,8.0,12.0,73,0.00,SCT,SCT,0.06,WeatherDisplay:10.37,2013-08-08 00:03:00,
2013-08-07 19:09:00,83.2,73.6,29.88,ENE,59,7.0,7.0,73,0.00,SCT,SCT,0.06,WeatherDisplay:10.37,2013-08-08 00:09:00,
2013-08-07 19:15:00,82.9,73.3,29.89,ENE,78,6.0,10.0,73,0.00,SCT,SCT,0.06,WeatherDisplay:10.37,2013-08-08 00:15:00,
2013-08-07 19:21:00,82.9,73.4,29.89,ENE,75,8.0,12.0,73,0.00,SCT,SCT,0.06,WeatherDisplay:10.37,2013-08-08 00:21:00,
2013-08-07 19:27:00,83.0,73.4,29.89,East,85,5.0,7.0,73,0.00,SCT,SCT,0.06,WeatherDisplay:10.37,2013-08-08 00:27:00,
2013-08-07 19:33:00,82.6,73.0,29.89,ENE,73,6.0,16.0,73,0.00,SCT,SCT,0.06,WeatherDisplay:10.37,2013-08-08 00:33:00,
2013-08-07 19:39:00,82.4,72.9,29.89,ENE,68,3.0,5.0,73,0.00,SCT,SCT,0.06,WeatherDisplay:10.37,2013-08-08 00:39:00,
2013-08-07 19:45:00,82.3,72.7,29.89,NE,52,8.0,13.0,73,0.00,SCT,SCT,0.06,WeatherDisplay:10.37,2013-08-08 00:45:00,
2013-08-07 19:51:00,81.9,72.4,29.90,ENE,78,5.0,7.0,73,0.00,SCT,SCT,0.06,WeatherDisplay:10.37,2013-08-08 00:51:00,
2013-08-07 19:57:00,81.9,72.4,29.90,ENE,73,3.0,7.0,73,0.00,SCT,SCT,0.06,WeatherDisplay:10.37,2013-08-08 00:57:00,
2013-08-07 20:03:00,82.4,72.9,29.90,ENE,61,5.0,8.0,73,0.00,SCT,SCT,0.06,WeatherDisplay:10.37,2013-08-08 01:03:00,
2013-08-07 20:09:00,82.2,72.7,29.90,ENE,71,2.0,3.0,73,0.00,SCT,SCT,0.06,WeatherDisplay:10.37,2013-08-08 01:09:00,
2013-08-07 20:15:00,81.9,72.4,29.91,East,79,5.0,7.0,73,0.00,SCT,SCT,0.06,WeatherDisplay:10.37,2013-08-08 01:15:00,
2013-08-07 20:21:00,81.5,72.0,29.91,ENE,78,5.0,6.0,73,0.00,SCT,SCT,0.06,WeatherDisplay:10.37,2013-08-08 01:21:00,
2013-08-07 20:27:00,80.5,71.8,29.91,ENE,71,2.0,7.0,75,0.00,SCT,SCT,0.06,WeatherDisplay:10.37,2013-08-08 01:27:00,
2013-08-07 20:33:00,80.3,73.2,29.91,ENE,75,3.0,5.0,79,0.00,SCT,SCT,0.06,WeatherDisplay:10.37,2013-08-08 01:33:00,
2013-08-07 20:39:00,79.7,72.6,29.91,ENE,67,3.0,6.0,79,0.00,SCT,SCT,0.06,WeatherDisplay:10.37,2013-08-08 01:39:00,
2013-08-07 20:45:00,79.4,73.4,29.91,ENE,66,2.0,3.0,82,0.00,SCT,SCT,0.06,WeatherDisplay:10.37,2013-08-08 01:45:00,
2013-08-07 20:51:00,79.2,73.2,29.91,ENE,67,2.0,5.0,82,0.00,SCT,SCT,0.06,WeatherDisplay:10.37,2013-08-08 01:51:00,
2013-08-07 20:57:00,79.0,73.0,29.91,ENE,78,3.0,6.0,82,0.00,SCT,SCT,0.06,WeatherDisplay:10.37,2013-08-08 01:57:00,
2013-08-07 21:03:00,79.0,73.0,29.92,East,83,5.0,8.0,82,0.00,SCT,SCT,0.06,WeatherDisplay:10.37,2013-08-08 02:03:00,
2013-08-07 21:09:00,79.0,73.0,29.92,East,79,3.0,7.0,82,0.00,SCT,SCT,0.06,WeatherDisplay:10.37,2013-08-08 02:09:00,
2013-08-07 21:15:00,79.0,73.0,29.93,East,82,7.0,9.0,82,0.00,SCT,SCT,0.06,WeatherDisplay:10.37,2013-08-08 02:15:00,
2013-08-07 21:21:00,79.2,73.2,29.93,ENE,71,6.0,6.0,82,0.00,SCT,SCT,0.06,WeatherDisplay:10.37,2013-08-08 02:21:00,
2013-08-07 21:27:00,79.0,73.0,29.93,ENE,78,5.0,7.0,82,0.00,SCT,SCT,0.06,WeatherDisplay:10.37,2013-08-08 02:27:00,
2013-08-07 21:33:00,79.0,73.0,29.93,ENE,69,0.0,0.0,82,0.00,SCT,SCT,0.06,WeatherDisplay:10.37,2013-08-08 02:33:00,
2013-08-07 21:39:00,78.8,72.8,29.93,ENE,72,3.0,8.0,82,0.00,SCT,SCT,0.06,WeatherDisplay:10.37,2013-08-08 02:39:00,
2013-08-07 21:45:00,78.8,72.8,29.93,ENE,74,7.0,9.0,82,0.00,SCT,SCT,0.06,WeatherDisplay:10.37,2013-08-08 02:45:00,
2013-08-07 21:51:00,78.8,72.8,29.93,ENE,76,5.0,12.0,82,0.00,SCT,SCT,0.06,WeatherDisplay:10.37,2013-08-08 02:51:00,
2013-08-07 21:57:00,78.7,72.7,29.93,ENE,71,5.0,7.0,82,0.00,SCT,SCT,0.06,WeatherDisplay:10.37,2013-08-08 02:57:00,
2013-08-07 22:03:00,78.7,72.7,29.93,ENE,77,3.0,6.0,82,0.00,BKN,BKN,0.06,WeatherDisplay:10.37,2013-08-08 03:03:00,
2013-08-07 22:09:00,78.5,72.5,29.93,ENE,70,3.0,6.0,82,0.00,BKN,BKN,0.06,WeatherDisplay:10.37,2013-08-08 03:09:00,
2013-08-07 22:15:00,78.3,72.3,29.94,East,88,1.0,5.0,82,0.00,BKN,BKN,0.06,WeatherDisplay:10.37,2013-08-08 03:15:00,
2013-08-07 22:21:00,78.3,72.3,29.94,East,81,3.0,6.0,82,0.00,BKN,BKN,0.06,WeatherDisplay:10.37,2013-08-08 03:21:00,
2013-08-07 22:27:00,78.3,72.3,29.94,East,87,3.0,10.0,82,0.00,BKN,BKN,0.06,WeatherDisplay:10.37,2013-08-08 03:27:00,
2013-08-07 22:33:00,78.1,72.1,29.94,ENE,78,5.0,7.0,82,0.00,BKN,BKN,0.06,WeatherDisplay:10.37,2013-08-08 03:33:00,
2013-08-07 22:39:00,77.9,71.9,29.94,ENE,73,5.0,6.0,82,0.00,BKN,BKN,0.06,WeatherDisplay:10.37,2013-08-08 03:39:00,
2013-08-07 22:45:00,77.9,71.9,29.94,ENE,62,5.0,9.0,82,0.00,BKN,BKN,0.06,WeatherDisplay:10.37,2013-08-08 03:45:00,
2013-08-07 22:51:00,77.9,71.9,29.94,ENE,75,7.0,12.0,82,0.00,BKN,BKN,0.06,WeatherDisplay:10.37,2013-08-08 03:51:00,
2013-08-07 22:57:00,77.9,71.9,29.94,East,92,5.0,5.0,82,0.00,BKN,BKN,0.06,WeatherDisplay:10.37,2013-08-08 03:57:00,
2013-08-07 23:03:00,77.8,71.8,29.93,East,88,5.0,7.0,82,0.00,BKN,BKN,0.06,WeatherDisplay:10.37,2013-08-08 04:03:00,
2013-08-07 23:06:00,77.6,71.6,29.93,East,84,5.0,8.0,82,0.00,BKN,BKN,0.06,WeatherDisplay:10.37,2013-08-08 04:06:00,
2013-08-07 23:09:00,77.6,71.6,29.93,East,88,7.0,9.0,82,0.00,BKN,BKN,0.06,WeatherDisplay:10.37,2013-08-08 04:09:00,
2013-08-07 23:12:00,77.6,71.6,29.93,ENE,76,6.0,8.0,82,0.00,BKN,BKN,0.06,WeatherDisplay:10.37,2013-08-08 04:12:00,
2013-08-07 23:18:00,77.4,71.4,29.93,East,85,5.0,7.0,82,0.00,BKN,BKN,0.06,WeatherDisplay:10.37,2013-08-08 04:18:00,
2013-08-07 23:24:00,77.2,71.2,29.93,ENE,70,6.0,8.0,82,0.00,BKN,BKN,0.06,WeatherDisplay:10.37,2013-08-08 04:24:00,
2013-08-07 23:30:00,77.0,71.1,29.93,ENE,66,5.0,6.0,82,0.00,BKN,BKN,0.06,WeatherDisplay:10.37,2013-08-08 04:30:00,
2013-08-07 23:36:00,77.0,71.0,29.93,ENE,71,7.0,9.0,82,0.00,BKN,BKN,0.06,WeatherDisplay:10.37,2013-08-08 04:36:00,
2013-08-07 23:39:00,77.0,71.0,29.92,ENE,72,7.0,12.0,82,0.00,BKN,BKN,0.06,WeatherDisplay:10.37,2013-08-08 04:39:00,
2013-08-07 23:45:00,77.0,71.0,29.92,ENE,58,1.0,7.0,82,0.00,BKN,BKN,0.06,WeatherDisplay:10.37,2013-08-08 04:45:00,
2013-08-07 23:51:00,77.0,71.0,29.93,ENE,62,3.0,7.0,82,0.00,BKN,BKN,0.06,WeatherDisplay:10.37,2013-08-08 04:51:00,
2013-08-07 23:57:00,76.9,70.9,29.93,East,82,3.0,7.0,82,0.00,BKN,BKN,0.06,WeatherDisplay:10.37,2013-08-08 04:57:00,